createdAt,value
2022-12-19T00:00:11.934Z,0.00
2022-12-19T00:01:08.289Z,0.00
2022-12-19T00:02:08.293Z,0.00
2022-12-19T00:03:08.329Z,0.00
2022-12-19T00:04:09.039Z,0.00
2022-12-19T00:05:08.053Z,0.00
2022-12-19T00:06:07.984Z,0.00
2022-12-19T00:07:08.031Z,0.00
2022-12-19T00:08:14.525Z,0.00
2022-12-19T00:09:07.824Z,0.00
2022-12-19T00:10:07.732Z,0.00
2022-12-19T00:11:07.677Z,0.00
2022-12-19T00:12:07.654Z,0.00
2022-12-19T00:13:07.538Z,0.00
2022-12-19T00:14:07.487Z,0.00
2022-12-19T00:15:07.418Z,0.00
2022-12-19T00:16:07.415Z,0.00
2022-12-19T00:17:07.321Z,0.00
2022-12-19T00:18:07.302Z,0.00
2022-12-19T00:19:07.186Z,0.00
2022-12-19T00:20:07.117Z,0.00
2022-12-19T00:21:07.066Z,0.00
2022-12-19T00:22:11.071Z,0.00
2022-12-19T00:23:07.007Z,0.00
2022-12-19T00:24:20.441Z,0.00
2022-12-19T00:25:06.815Z,0.00
2022-12-19T00:26:06.755Z,0.00
2022-12-19T00:27:06.669Z,0.00
2022-12-19T00:28:06.636Z,0.00
2022-12-19T00:29:11.188Z,0.00
2022-12-19T00:30:06.485Z,0.00
2022-12-19T00:31:06.476Z,0.00
2022-12-19T00:32:06.410Z,0.00
2022-12-19T00:33:06.306Z,0.00
2022-12-19T00:34:06.278Z,0.00
2022-12-19T00:35:06.190Z,0.00
2022-12-19T00:36:06.142Z,0.00
2022-12-19T00:37:06.075Z,0.00
2022-12-19T00:38:06.015Z,0.00
2022-12-19T00:39:08.173Z,0.00
2022-12-19T00:40:05.897Z,0.00
2022-12-19T00:41:05.807Z,0.00
2022-12-19T00:42:05.762Z,0.00
2022-12-19T00:43:05.689Z,0.00
2022-12-19T00:44:05.627Z,0.00
2022-12-19T00:45:05.621Z,0.00
2022-12-19T00:46:05.583Z,0.00
2022-12-19T00:47:05.431Z,0.00
2022-12-19T00:48:05.390Z,0.00
2022-12-19T00:49:05.318Z,0.00
2022-12-19T00:50:05.251Z,0.00
2022-12-19T00:51:05.218Z,0.00
2022-12-19T00:52:05.132Z,0.00
2022-12-19T00:53:05.064Z,0.00
2022-12-19T00:54:06.597Z,0.00
2022-12-19T00:55:06.800Z,0.00
2022-12-19T00:56:04.877Z,0.00
2022-12-19T00:57:04.868Z,0.00
2022-12-19T00:58:04.762Z,0.00
2022-12-19T00:59:04.724Z,0.00
2022-12-19T01:00:04.651Z,0.00
2022-12-19T01:01:04.599Z,0.00
2022-12-19T01:02:04.681Z,0.00
2022-12-19T01:03:04.469Z,0.00
2022-12-19T01:04:27.778Z,0.00
2022-12-19T01:05:04.366Z,0.00
2022-12-19T01:06:04.265Z,0.00
2022-12-19T01:07:04.211Z,0.00
2022-12-19T01:08:04.145Z,0.00
2022-12-19T01:09:04.118Z,0.00
2022-12-19T01:10:04.031Z,0.00
2022-12-19T01:11:04.054Z,0.00
2022-12-19T01:12:03.903Z,0.00
2022-12-19T01:13:03.870Z,0.00
2022-12-19T01:14:03.794Z,0.00
2022-12-19T01:15:04.978Z,0.00
2022-12-19T01:16:03.712Z,0.00
2022-12-19T01:17:03.621Z,0.00
2022-12-19T01:18:03.534Z,0.00
2022-12-19T01:19:03.477Z,0.00
2022-12-19T01:20:03.397Z,0.00
2022-12-19T01:21:03.351Z,0.00
2022-12-19T01:22:03.300Z,0.00
2022-12-19T01:23:03.218Z,0.00
2022-12-19T01:24:03.162Z,0.00
2022-12-19T01:25:03.081Z,0.00
2022-12-19T01:26:03.070Z,0.00
2022-12-19T01:27:03.071Z,0.00
2022-12-19T01:28:02.907Z,0.00
2022-12-19T01:29:02.858Z,0.00
2022-12-19T01:30:02.781Z,0.00
2022-12-19T01:31:02.749Z,0.00
2022-12-19T01:32:02.805Z,0.00
2022-12-19T01:33:02.603Z,0.00
2022-12-19T01:34:02.570Z,0.00
2022-12-19T01:35:02.476Z,0.00
2022-12-19T01:36:02.402Z,0.00
2022-12-19T01:37:02.337Z,0.00
2022-12-19T01:38:08.494Z,0.00
2022-12-19T01:39:02.229Z,0.00
2022-12-19T01:40:02.188Z,0.00
2022-12-19T01:41:02.141Z,0.00
2022-12-19T01:42:02.050Z,0.00
2022-12-19T01:43:02.061Z,0.00
2022-12-19T01:44:01.952Z,0.00
2022-12-19T01:45:01.886Z,0.00
2022-12-19T01:46:01.838Z,0.00
2022-12-19T01:47:01.719Z,0.00
2022-12-19T01:48:01.675Z,0.00
2022-12-19T01:49:01.600Z,0.00
2022-12-19T01:50:01.544Z,0.00
2022-12-19T01:51:02.556Z,0.00
2022-12-19T01:52:01.435Z,0.00
2022-12-19T01:53:01.353Z,0.00
2022-12-19T01:54:01.303Z,0.00
2022-12-19T01:55:01.247Z,0.00
2022-12-19T01:57:01.098Z,0.00
2022-12-19T01:58:01.014Z,0.00
2022-12-19T01:59:06.435Z,0.00
2022-12-19T02:00:00.937Z,0.00
2022-12-19T02:01:00.884Z,0.00
2022-12-19T02:02:00.992Z,0.00
2022-12-19T02:03:00.799Z,0.00
2022-12-19T02:04:00.659Z,0.00
2022-12-19T02:05:00.599Z,0.00
2022-12-19T02:06:00.570Z,0.00
2022-12-19T02:07:03.557Z,0.00
2022-12-19T02:08:00.416Z,0.00
2022-12-19T02:09:00.347Z,0.00
2022-12-19T02:10:00.304Z,0.00
2022-12-19T02:11:00.257Z,0.00
2022-12-19T02:12:00.166Z,0.00
2022-12-19T02:13:00.117Z,0.00
2022-12-19T02:14:00.076Z,0.00
2022-12-19T02:15:02.819Z,0.00
2022-12-19T02:15:59.921Z,0.00
2022-12-19T02:16:59.918Z,0.00
2022-12-19T02:17:59.802Z,0.00
2022-12-19T02:18:59.776Z,0.00
2022-12-19T02:19:59.662Z,0.00
2022-12-19T02:20:59.613Z,0.00
2022-12-19T02:21:59.593Z,0.00
2022-12-19T02:22:59.481Z,0.00
2022-12-19T02:23:59.462Z,0.00
2022-12-19T02:24:59.396Z,0.00
2022-12-19T02:25:59.305Z,0.00
2022-12-19T02:26:59.230Z,0.00
2022-12-19T02:27:59.200Z,0.00
2022-12-19T02:28:59.125Z,0.00
2022-12-19T02:29:59.087Z,0.00
2022-12-19T02:30:59.079Z,0.00
2022-12-19T02:31:58.976Z,0.00
2022-12-19T02:32:58.900Z,0.00
2022-12-19T02:33:58.872Z,0.00
2022-12-19T02:34:58.722Z,0.00
2022-12-19T02:35:58.716Z,0.00
2022-12-19T02:36:58.631Z,0.00
2022-12-19T02:37:58.581Z,0.00
2022-12-19T02:38:58.498Z,0.00
2022-12-19T02:39:58.533Z,0.00
2022-12-19T02:40:58.413Z,0.00
2022-12-19T02:41:58.325Z,0.00
2022-12-19T02:42:58.291Z,0.00
2022-12-19T02:43:58.782Z,0.00
2022-12-19T02:44:58.159Z,0.00
2022-12-19T02:45:58.170Z,0.00
2022-12-19T02:46:58.086Z,0.00
2022-12-19T02:47:57.927Z,0.00
2022-12-19T02:48:57.920Z,0.00
2022-12-19T02:49:57.863Z,0.00
2022-12-19T02:50:57.771Z,0.00
2022-12-19T02:51:57.722Z,0.00
2022-12-19T02:52:57.647Z,0.00
2022-12-19T02:53:57.591Z,0.00
2022-12-19T02:54:57.539Z,0.00
2022-12-19T02:55:57.491Z,0.00
2022-12-19T02:56:57.391Z,0.00
2022-12-19T02:57:57.326Z,0.00
2022-12-19T02:58:57.280Z,0.00
2022-12-19T02:59:57.217Z,0.00
2022-12-19T03:00:57.235Z,0.00
2022-12-19T03:01:57.210Z,0.00
2022-12-19T03:03:01.104Z,0.00
2022-12-19T03:03:56.976Z,0.00
2022-12-19T03:04:56.943Z,0.00
2022-12-19T03:05:56.854Z,0.00
2022-12-19T03:06:56.874Z,0.00
2022-12-19T03:07:56.730Z,0.00
2022-12-19T03:08:56.674Z,0.00
2022-12-19T03:09:56.626Z,0.00
2022-12-19T03:10:56.547Z,0.00
2022-12-19T03:11:56.477Z,0.00
2022-12-19T03:12:56.410Z,0.00
2022-12-19T03:13:56.364Z,0.00
2022-12-19T03:14:56.327Z,0.00
2022-12-19T03:15:56.225Z,0.00
2022-12-19T03:16:56.238Z,0.00
2022-12-19T03:17:56.152Z,0.00
2022-12-19T03:18:56.127Z,0.00
2022-12-19T03:19:55.991Z,0.00
2022-12-19T03:20:55.957Z,0.00
2022-12-19T03:21:55.885Z,0.00
2022-12-19T03:22:55.808Z,0.00
2022-12-19T03:23:55.821Z,0.00
2022-12-19T03:24:55.684Z,0.00
2022-12-19T03:25:55.648Z,0.00
2022-12-19T03:26:55.547Z,0.00
2022-12-19T03:27:55.500Z,0.00
2022-12-19T03:28:55.459Z,0.00
2022-12-19T03:29:55.377Z,0.00
2022-12-19T03:30:55.435Z,0.00
2022-12-19T03:31:55.240Z,0.00
2022-12-19T03:32:55.203Z,0.00
2022-12-19T03:33:55.121Z,0.00
2022-12-19T03:34:55.152Z,0.00
2022-12-19T03:35:55.008Z,0.00
2022-12-19T03:36:54.984Z,0.00
2022-12-19T03:37:54.893Z,0.00
2022-12-19T03:38:54.843Z,0.00
2022-12-19T03:39:54.764Z,0.00
2022-12-19T03:40:54.708Z,0.00
2022-12-19T03:41:54.658Z,0.00
2022-12-19T03:42:54.590Z,0.00
2022-12-19T03:43:54.548Z,0.00
2022-12-19T03:44:54.487Z,0.00
2022-12-19T03:45:54.470Z,0.00
2022-12-19T03:46:54.358Z,0.00
2022-12-19T03:47:54.267Z,0.00
2022-12-19T03:48:54.211Z,0.00
2022-12-19T03:49:54.180Z,0.00
2022-12-19T03:50:54.159Z,0.00
2022-12-19T03:51:59.204Z,0.00
2022-12-19T03:52:53.968Z,0.00
2022-12-19T03:53:53.880Z,0.00
2022-12-19T03:54:53.843Z,0.00
2022-12-19T03:55:53.805Z,0.00
2022-12-19T03:56:53.731Z,0.00
2022-12-19T03:57:53.654Z,0.00
2022-12-19T03:58:53.588Z,0.00
2022-12-19T03:59:53.556Z,0.00
2022-12-19T04:00:53.458Z,0.00
2022-12-19T04:01:53.523Z,0.00
2022-12-19T04:02:53.347Z,0.00
2022-12-19T04:03:53.360Z,0.00
2022-12-19T04:04:53.229Z,0.00
2022-12-19T04:05:53.148Z,0.00
2022-12-19T04:06:53.177Z,0.00
2022-12-19T04:07:53.040Z,0.00
2022-12-19T04:08:52.997Z,0.00
2022-12-19T04:09:52.917Z,0.00
2022-12-19T04:10:52.884Z,0.00
2022-12-19T04:11:52.784Z,0.00
2022-12-19T04:12:52.729Z,0.00
2022-12-19T04:13:52.661Z,0.00
2022-12-19T04:14:52.642Z,0.00
2022-12-19T04:15:52.561Z,0.00
2022-12-19T04:16:52.490Z,0.00
2022-12-19T04:17:52.411Z,0.00
2022-12-19T04:18:52.404Z,0.00
2022-12-19T04:19:52.320Z,0.00
2022-12-19T04:20:52.234Z,0.00
2022-12-19T04:21:52.139Z,0.00
2022-12-19T04:22:52.219Z,0.00
2022-12-19T04:23:52.039Z,0.00
2022-12-19T04:24:52.003Z,0.00
2022-12-19T04:25:51.952Z,0.00
2022-12-19T04:26:51.863Z,0.00
2022-12-19T04:27:51.800Z,0.00
2022-12-19T04:28:51.762Z,0.00
2022-12-19T04:29:51.679Z,0.00
2022-12-19T04:30:51.681Z,0.00
2022-12-19T04:31:51.578Z,0.00
2022-12-19T04:32:51.495Z,0.00
2022-12-19T04:33:51.470Z,0.00
2022-12-19T04:34:51.385Z,0.00
2022-12-19T04:35:51.312Z,0.00
2022-12-19T04:36:51.281Z,0.00
2022-12-19T04:37:51.218Z,0.00
2022-12-19T04:38:51.177Z,0.00
2022-12-19T04:39:51.072Z,0.00
2022-12-19T04:40:50.981Z,0.00
2022-12-19T04:41:50.933Z,0.00
2022-12-19T04:42:50.883Z,0.00
2022-12-19T04:43:50.842Z,0.00
2022-12-19T04:44:50.750Z,0.00
2022-12-19T04:45:56.941Z,0.00
2022-12-19T04:46:50.676Z,0.00
2022-12-19T04:47:50.584Z,0.00
2022-12-19T04:48:50.508Z,0.00
2022-12-19T04:49:50.451Z,0.00
2022-12-19T04:50:50.387Z,0.00
2022-12-19T04:51:50.360Z,0.00
2022-12-19T04:52:53.262Z,0.00
2022-12-19T04:53:50.239Z,0.00
2022-12-19T04:54:50.203Z,0.00
2022-12-19T04:55:50.092Z,0.00
2022-12-19T04:56:50.015Z,0.00
2022-12-19T04:57:49.985Z,0.00
2022-12-19T04:58:49.892Z,0.00
2022-12-19T04:59:49.828Z,0.00
2022-12-19T05:00:49.779Z,0.00
2022-12-19T05:01:49.799Z,0.00
2022-12-19T05:02:49.814Z,0.00
2022-12-19T05:03:54.598Z,0.00
2022-12-19T05:04:49.544Z,0.00
2022-12-19T05:05:49.453Z,0.00
2022-12-19T05:06:49.393Z,0.00
2022-12-19T05:07:49.358Z,0.00
2022-12-19T05:08:49.326Z,0.00
2022-12-19T05:09:49.206Z,0.00
2022-12-19T05:10:49.216Z,0.00
2022-12-19T05:11:49.123Z,0.00
2022-12-19T05:12:49.018Z,0.00
2022-12-19T05:13:48.942Z,0.00
2022-12-19T05:14:48.883Z,0.00
2022-12-19T05:15:48.893Z,0.00
2022-12-19T05:16:48.769Z,0.00
2022-12-19T05:17:48.723Z,0.00
2022-12-19T05:18:48.654Z,0.00
2022-12-19T05:19:48.597Z,0.00
2022-12-19T05:20:48.548Z,0.00
2022-12-19T05:21:48.471Z,0.00
2022-12-19T05:22:48.406Z,0.00
2022-12-19T05:23:48.335Z,0.00
2022-12-19T05:24:48.281Z,0.00
2022-12-19T05:25:48.223Z,0.00
2022-12-19T05:26:48.269Z,0.00
2022-12-19T05:27:48.102Z,0.00
2022-12-19T05:28:48.031Z,0.00
2022-12-19T05:29:47.988Z,0.00
2022-12-19T05:30:52.295Z,0.00
2022-12-19T05:31:47.858Z,0.00
2022-12-19T05:32:47.814Z,0.00
2022-12-19T05:33:47.727Z,0.00
2022-12-19T05:34:47.682Z,0.00
2022-12-19T05:35:47.595Z,0.00
2022-12-19T05:36:47.531Z,0.00
2022-12-19T05:37:47.458Z,0.00
2022-12-19T05:38:47.466Z,0.00
2022-12-19T05:39:47.431Z,0.00
2022-12-19T05:40:47.311Z,0.00
2022-12-19T05:41:49.156Z,0.00
2022-12-19T05:42:47.241Z,0.00
2022-12-19T05:43:47.093Z,0.00
2022-12-19T05:44:47.081Z,0.00
2022-12-19T05:45:46.994Z,0.00
2022-12-19T05:46:46.998Z,0.00
2022-12-19T05:47:46.895Z,0.00
2022-12-19T05:48:46.785Z,0.00
2022-12-19T05:49:46.841Z,0.00
2022-12-19T05:50:46.686Z,0.00
2022-12-19T05:51:46.610Z,0.00
2022-12-19T05:52:46.545Z,0.00
2022-12-19T05:53:46.470Z,0.00
2022-12-19T05:54:46.437Z,0.00
2022-12-19T05:55:46.364Z,0.00
2022-12-19T05:56:46.309Z,0.00
2022-12-19T05:57:46.219Z,0.00
2022-12-19T05:58:46.293Z,0.00
2022-12-19T05:59:46.100Z,0.00
2022-12-19T06:00:46.042Z,0.00
2022-12-19T06:01:46.179Z,0.00
2022-12-19T06:02:46.055Z,0.00
2022-12-19T06:03:45.976Z,0.00
2022-12-19T06:04:45.850Z,0.00
2022-12-19T06:05:45.727Z,0.00
2022-12-19T06:06:45.668Z,0.00
2022-12-19T06:07:45.621Z,0.00
2022-12-19T06:08:45.579Z,0.00
2022-12-19T06:09:45.515Z,0.00
2022-12-19T06:10:45.429Z,0.00
2022-12-19T06:11:45.365Z,0.00
2022-12-19T06:12:45.325Z,0.00
2022-12-19T06:13:45.285Z,0.00
2022-12-19T06:14:45.282Z,0.00
2022-12-19T06:15:45.124Z,0.00
2022-12-19T06:16:45.287Z,0.00
2022-12-19T06:17:45.018Z,0.00
2022-12-19T06:18:45.556Z,0.00
2022-12-19T06:19:44.892Z,0.00
2022-12-19T06:20:44.832Z,0.00
2022-12-19T06:21:48.174Z,0.00
2022-12-19T06:22:44.702Z,0.00
2022-12-19T06:23:44.675Z,0.00
2022-12-19T06:24:44.577Z,0.00
2022-12-19T06:25:44.552Z,0.00
2022-12-19T06:26:44.601Z,0.00
2022-12-19T06:27:44.384Z,0.00
2022-12-19T06:28:44.296Z,0.00
2022-12-19T06:29:44.262Z,0.00
2022-12-19T06:30:44.305Z,0.00
2022-12-19T06:31:44.151Z,0.00
2022-12-19T06:32:44.111Z,0.00
2022-12-19T06:33:44.009Z,0.00
2022-12-19T06:35:43.863Z,0.00
2022-12-19T06:36:43.850Z,0.00
2022-12-19T06:37:43.768Z,0.00
2022-12-19T06:38:43.756Z,0.00
2022-12-19T06:39:43.638Z,0.00
2022-12-19T06:40:43.591Z,0.00
2022-12-19T06:41:43.525Z,0.00
2022-12-19T06:42:43.457Z,0.00
2022-12-19T06:43:43.393Z,0.00
2022-12-19T06:44:43.368Z,0.00
2022-12-19T06:45:43.287Z,0.00
2022-12-19T06:46:43.319Z,0.00
2022-12-19T06:47:43.135Z,0.00
2022-12-19T06:48:43.069Z,0.00
2022-12-19T06:49:43.064Z,0.00
2022-12-19T06:50:42.941Z,0.00
2022-12-19T06:51:42.922Z,0.00
2022-12-19T06:52:42.843Z,0.00
2022-12-19T06:53:42.761Z,0.00
2022-12-19T06:54:42.765Z,0.00
2022-12-19T06:55:42.646Z,0.00
2022-12-19T06:56:42.617Z,0.00
2022-12-19T06:57:42.531Z,0.00
2022-12-19T06:58:42.465Z,0.00
2022-12-19T06:59:42.462Z,0.00
2022-12-19T07:00:42.379Z,0.00
2022-12-19T07:01:42.434Z,0.00
2022-12-19T07:02:42.537Z,0.00
2022-12-19T07:03:42.166Z,0.00
2022-12-19T07:04:42.110Z,0.00
2022-12-19T07:05:42.088Z,0.00
2022-12-19T07:06:47.328Z,0.00
2022-12-19T07:07:41.923Z,0.00
2022-12-19T07:08:41.836Z,0.00
2022-12-19T07:09:41.794Z,0.00
2022-12-19T07:10:41.818Z,0.00
2022-12-19T07:11:41.677Z,0.00
2022-12-19T07:12:41.607Z,0.00
2022-12-19T07:13:41.539Z,0.00
2022-12-19T07:14:41.494Z,0.00
2022-12-19T07:15:41.426Z,0.00
2022-12-19T07:16:41.558Z,0.00
2022-12-19T07:17:41.314Z,0.00
2022-12-19T07:18:41.337Z,0.00
2022-12-19T07:19:41.204Z,0.00
2022-12-19T07:20:45.029Z,0.00
2022-12-19T07:21:41.078Z,0.00
2022-12-19T07:22:41.032Z,0.00
2022-12-19T07:23:40.947Z,0.00
2022-12-19T07:24:40.908Z,0.00
2022-12-19T07:25:40.819Z,0.00
2022-12-19T07:26:40.740Z,0.00
2022-12-19T07:27:40.719Z,0.00
2022-12-19T07:28:40.611Z,0.00
2022-12-19T07:29:40.564Z,0.00
2022-12-19T07:30:40.516Z,0.00
2022-12-19T07:31:40.472Z,0.00
2022-12-19T07:32:40.421Z,0.00
2022-12-19T07:33:40.319Z,0.00
2022-12-19T07:34:40.329Z,0.00
2022-12-19T07:35:40.203Z,0.00
2022-12-19T07:36:40.162Z,0.00
2022-12-19T07:37:40.068Z,0.00
2022-12-19T07:38:40.032Z,0.00
2022-12-19T07:39:39.948Z,0.00
2022-12-19T07:40:39.887Z,0.00
2022-12-19T07:41:39.844Z,0.00
2022-12-19T07:42:39.747Z,0.00
2022-12-19T07:43:39.770Z,0.00
2022-12-19T07:44:43.259Z,0.00
2022-12-19T07:45:39.661Z,0.00
2022-12-19T07:46:39.547Z,0.00
2022-12-19T07:47:39.455Z,0.00
2022-12-19T07:48:40.239Z,0.00
2022-12-19T07:49:39.371Z,0.00
2022-12-19T07:50:39.393Z,5.63
2022-12-19T07:51:39.385Z,5.63
2022-12-19T07:52:39.706Z,5.63
2022-12-19T07:53:39.132Z,5.63
2022-12-19T07:54:39.959Z,5.63
2022-12-19T07:55:38.957Z,5.63
2022-12-19T07:56:38.913Z,5.63
2022-12-19T07:57:38.860Z,5.63
2022-12-19T07:58:38.819Z,5.63
2022-12-19T07:59:39.502Z,5.63
2022-12-19T08:00:38.674Z,5.63
2022-12-19T08:01:38.703Z,5.63
2022-12-19T08:02:38.591Z,11.25
2022-12-19T08:03:38.469Z,11.25
2022-12-19T08:04:38.455Z,11.25
2022-12-19T08:05:38.382Z,11.25
2022-12-19T08:06:41.457Z,11.25
2022-12-19T08:07:38.246Z,11.25
2022-12-19T08:08:38.216Z,11.25
2022-12-19T08:09:38.113Z,11.25
2022-12-19T08:10:38.034Z,11.25
2022-12-19T08:11:38.017Z,16.88
2022-12-19T08:12:38.047Z,16.88
2022-12-19T08:13:43.145Z,11.25
2022-12-19T08:14:37.815Z,11.25
2022-12-19T08:15:37.749Z,11.25
2022-12-19T08:17:10.903Z,11.25
2022-12-19T08:17:37.769Z,11.25
2022-12-19T08:18:37.537Z,11.25
2022-12-19T08:19:37.496Z,11.25
2022-12-19T08:20:37.458Z,11.25
2022-12-19T08:21:37.393Z,11.25
2022-12-19T08:22:37.422Z,11.25
2022-12-19T08:23:37.246Z,16.88
2022-12-19T08:24:37.204Z,16.88
2022-12-19T08:25:37.154Z,16.88
2022-12-19T08:26:41.782Z,16.88
2022-12-19T08:27:37.018Z,22.50
2022-12-19T08:28:36.986Z,22.50
2022-12-19T08:29:36.912Z,22.50
2022-12-19T08:30:36.874Z,22.50
2022-12-19T08:31:36.772Z,22.50
2022-12-19T08:32:36.699Z,22.50
2022-12-19T08:33:36.668Z,16.88
2022-12-19T08:34:36.680Z,16.88
2022-12-19T08:35:36.544Z,16.88
2022-12-19T08:36:36.459Z,16.88
2022-12-19T08:37:36.381Z,16.88
2022-12-19T08:38:36.625Z,16.88
2022-12-19T08:39:36.303Z,16.88
2022-12-19T08:40:36.226Z,16.88
2022-12-19T08:41:36.739Z,16.88
2022-12-19T08:42:36.071Z,16.88
2022-12-19T08:43:36.022Z,16.88
2022-12-19T08:44:35.993Z,16.88
2022-12-19T08:45:35.925Z,16.88
2022-12-19T08:46:35.908Z,16.88
2022-12-19T08:47:35.778Z,16.88
2022-12-19T08:48:35.731Z,16.88
2022-12-19T08:49:35.757Z,16.88
2022-12-19T08:50:35.577Z,16.88
2022-12-19T08:51:35.567Z,16.88
2022-12-19T08:52:35.482Z,16.88
2022-12-19T08:53:35.449Z,22.50
2022-12-19T08:54:35.463Z,22.50
2022-12-19T08:55:35.281Z,22.50
2022-12-19T08:56:35.213Z,22.50
2022-12-19T08:57:35.216Z,22.50
2022-12-19T08:58:35.086Z,28.13
2022-12-19T08:59:35.061Z,28.13
2022-12-19T09:00:35.010Z,28.13
2022-12-19T09:01:35.021Z,28.13
2022-12-19T09:02:35.071Z,33.75
2022-12-19T09:03:49.050Z,33.75
2022-12-19T09:06:00.267Z,33.75
2022-12-19T09:06:02.150Z,39.38
2022-12-19T09:06:34.659Z,39.38
2022-12-19T09:07:34.593Z,45.00
2022-12-19T09:08:34.538Z,45.00
2022-12-19T09:09:34.455Z,45.00
2022-12-19T09:10:34.454Z,50.63
2022-12-19T09:11:35.371Z,50.63
2022-12-19T09:12:34.268Z,50.63
2022-12-19T09:13:34.182Z,50.63
2022-12-19T09:14:34.139Z,50.63
2022-12-19T09:15:34.082Z,50.63
2022-12-19T09:16:34.069Z,50.63
2022-12-19T09:17:33.951Z,50.63
2022-12-19T09:18:33.920Z,45.00
2022-12-19T09:19:33.860Z,45.00
2022-12-19T09:20:33.762Z,45.00
2022-12-19T09:21:33.699Z,50.63
2022-12-19T09:22:33.679Z,50.63
2022-12-19T09:23:33.570Z,50.63
2022-12-19T09:24:33.532Z,50.63
2022-12-19T09:25:33.625Z,56.25
2022-12-19T09:26:33.797Z,56.25
2022-12-19T09:28:01.310Z,56.25
2022-12-19T09:28:33.281Z,56.25
2022-12-19T09:29:35.501Z,56.25
2022-12-19T09:30:33.346Z,56.25
2022-12-19T09:31:33.086Z,56.25
2022-12-19T09:32:33.075Z,56.25
2022-12-19T09:33:35.529Z,56.25
2022-12-19T09:34:37.143Z,50.63
2022-12-19T09:35:32.855Z,50.63
2022-12-19T09:36:32.800Z,50.63
2022-12-19T09:37:32.765Z,50.63
2022-12-19T09:38:32.676Z,50.63
2022-12-19T09:39:32.603Z,50.63
2022-12-19T09:40:32.578Z,50.63
2022-12-19T09:41:32.484Z,50.63
2022-12-19T09:42:32.541Z,45.00
2022-12-19T09:43:36.556Z,50.63
2022-12-19T09:44:32.306Z,50.63
2022-12-19T09:45:33.097Z,50.63
2022-12-19T09:46:32.253Z,50.63
2022-12-19T09:47:32.128Z,50.63
2022-12-19T09:48:32.054Z,50.63
2022-12-19T09:49:31.999Z,50.63
2022-12-19T09:50:31.953Z,45.00
2022-12-19T09:51:31.871Z,45.00
2022-12-19T09:52:33.103Z,50.63
2022-12-19T09:53:31.823Z,50.63
2022-12-19T09:54:31.701Z,50.63
2022-12-19T09:55:31.630Z,56.25
2022-12-19T09:56:40.209Z,56.25
2022-12-19T09:57:31.522Z,56.25
2022-12-19T09:58:31.451Z,61.88
2022-12-19T09:59:39.760Z,61.88
2022-12-19T10:00:31.329Z,61.88
2022-12-19T10:01:31.360Z,67.50
2022-12-19T10:02:31.427Z,67.50
2022-12-19T10:03:32.290Z,73.13
2022-12-19T10:04:31.103Z,73.13
2022-12-19T10:06:32.987Z,78.75
2022-12-19T10:07:11.698Z,78.75
2022-12-19T10:08:01.308Z,78.75
2022-12-19T10:08:30.869Z,78.75
2022-12-19T10:10:18.633Z,78.75
2022-12-19T10:12:35.988Z,78.75
2022-12-19T10:12:44.327Z,78.75
2022-12-19T10:12:45.128Z,78.75
2022-12-19T10:13:30.546Z,73.13
2022-12-19T10:14:30.615Z,73.13
2022-12-19T10:15:30.430Z,73.13
2022-12-19T10:16:30.398Z,73.13
2022-12-19T10:17:30.301Z,73.13
2022-12-19T10:18:30.380Z,73.13
2022-12-19T10:19:30.179Z,73.13
2022-12-19T10:20:30.095Z,73.13
2022-12-19T10:21:58.963Z,67.50
2022-12-19T10:22:29.983Z,67.50
2022-12-19T10:23:29.907Z,67.50
2022-12-19T10:24:33.236Z,67.50
2022-12-19T10:25:29.809Z,67.50
2022-12-19T10:26:30.258Z,67.50
2022-12-19T10:27:29.687Z,67.50
2022-12-19T10:28:29.605Z,67.50
2022-12-19T10:29:29.551Z,61.88
2022-12-19T10:30:31.960Z,61.88
2022-12-19T10:31:29.528Z,67.50
2022-12-19T10:32:29.407Z,67.50
2022-12-19T10:33:29.319Z,67.50
2022-12-19T10:34:29.299Z,67.50
2022-12-19T10:35:29.229Z,67.50
2022-12-19T10:36:55.942Z,73.13
2022-12-19T10:37:37.701Z,73.13
2022-12-19T10:38:29.067Z,73.13
2022-12-19T10:39:28.981Z,78.75
2022-12-19T10:40:29.146Z,78.75
2022-12-19T10:41:28.830Z,78.75
2022-12-19T10:42:28.804Z,78.75
2022-12-19T10:43:33.938Z,78.75
2022-12-19T10:44:28.664Z,78.75
2022-12-19T10:45:28.591Z,73.13
2022-12-19T10:46:28.690Z,73.13
2022-12-19T10:47:28.491Z,67.50
2022-12-19T10:48:30.639Z,67.50
2022-12-19T10:49:28.414Z,67.50
2022-12-19T10:50:28.318Z,67.50
2022-12-19T10:51:28.227Z,61.88
2022-12-19T10:52:28.209Z,61.88
2022-12-19T10:53:28.112Z,61.88
2022-12-19T10:54:33.656Z,61.88
2022-12-19T10:55:28.039Z,61.88
2022-12-19T10:56:34.928Z,67.50
2022-12-19T10:57:27.896Z,67.50
2022-12-19T10:58:27.875Z,73.13
2022-12-19T10:59:27.796Z,78.75
2022-12-19T11:00:27.878Z,78.75
2022-12-19T11:01:27.758Z,78.75
2022-12-19T11:02:27.745Z,78.75
2022-12-19T11:03:27.658Z,73.13
2022-12-19T11:04:27.567Z,67.50
2022-12-19T11:05:27.439Z,67.50
2022-12-19T11:06:27.330Z,61.88
2022-12-19T11:07:27.299Z,61.88
2022-12-19T11:08:27.243Z,61.88
2022-12-19T11:09:27.148Z,61.88
2022-12-19T11:12:18.907Z,61.88
2022-12-19T11:13:22.619Z,67.50
2022-12-19T11:16:44.933Z,67.50
2022-12-19T11:18:13.284Z,67.50
2022-12-19T11:18:18.613Z,67.50
2022-12-19T11:20:26.997Z,67.50
2022-12-19T11:22:24.727Z,67.50
2022-12-19T11:22:34.710Z,67.50
2022-12-19T11:28:06.751Z,61.88
2022-12-19T11:29:32.232Z,56.25
2022-12-19T11:29:34.345Z,56.25
2022-12-19T11:29:37.220Z,56.25
2022-12-19T11:29:43.948Z,56.25
2022-12-19T11:29:44.963Z,56.25
2022-12-19T11:29:45.792Z,50.63
2022-12-19T11:30:09.325Z,45.00
2022-12-19T11:30:38.373Z,45.00
2022-12-19T11:30:46.771Z,45.00
2022-12-19T11:30:46.944Z,50.63
2022-12-19T11:32:01.665Z,45.00
2022-12-19T11:32:44.198Z,39.38
2022-12-19T11:33:25.703Z,45.00
2022-12-19T11:34:25.742Z,45.00
2022-12-19T11:35:37.134Z,45.00
2022-12-19T11:36:25.484Z,45.00
2022-12-19T11:37:25.423Z,45.00
2022-12-19T11:38:25.389Z,45.00
2022-12-19T11:39:25.333Z,50.63
2022-12-19T11:40:25.267Z,50.63
2022-12-19T11:41:25.180Z,56.25
2022-12-19T11:42:25.128Z,61.88
2022-12-19T11:43:44.048Z,61.88
2022-12-19T11:44:25.018Z,67.50
2022-12-19T11:45:24.948Z,67.50
2022-12-19T11:46:24.900Z,67.50
2022-12-19T11:47:24.839Z,67.50
2022-12-19T11:48:24.754Z,67.50
2022-12-19T11:49:24.734Z,67.50
2022-12-19T11:50:24.763Z,61.88
2022-12-19T11:51:24.568Z,61.88
2022-12-19T11:53:02.239Z,61.88
2022-12-19T11:53:24.468Z,61.88
2022-12-19T11:54:24.435Z,56.25
2022-12-19T11:55:24.325Z,56.25
2022-12-19T11:56:24.301Z,56.25
2022-12-19T11:57:24.238Z,56.25
2022-12-19T11:58:24.166Z,50.63
2022-12-19T11:59:24.116Z,50.63
2022-12-19T12:00:24.059Z,50.63
2022-12-19T12:01:24.144Z,45.00
2022-12-19T12:02:23.943Z,39.38
2022-12-19T12:03:23.977Z,39.38
2022-12-19T12:04:23.872Z,39.38
2022-12-19T12:05:23.814Z,33.75
2022-12-19T12:06:29.542Z,33.75
2022-12-19T12:08:36.592Z,33.75
2022-12-19T12:09:31.134Z,33.75
2022-12-19T12:11:43.998Z,33.75
2022-12-19T12:13:55.484Z,33.75
2022-12-19T12:17:33.209Z,33.75
2022-12-19T12:19:39.297Z,33.75
2022-12-19T12:24:15.039Z,33.75
2022-12-19T12:28:07.060Z,28.13
2022-12-19T12:29:26.468Z,28.13
2022-12-19T12:29:40.690Z,28.13
2022-12-19T12:31:01.414Z,28.13
2022-12-19T12:31:02.138Z,28.13
2022-12-19T12:31:12.177Z,28.13
2022-12-19T12:31:13.429Z,28.13
2022-12-19T12:31:16.640Z,33.75
2022-12-19T12:31:28.340Z,28.13
2022-12-19T12:31:41.883Z,33.75
2022-12-19T12:31:43.273Z,33.75
2022-12-19T12:31:45.497Z,33.75
2022-12-19T12:31:57.234Z,28.13
2022-12-19T12:32:03.750Z,33.75
2022-12-19T12:32:05.070Z,33.75
2022-12-19T12:35:07.037Z,28.13
2022-12-19T12:35:31.715Z,28.13
2022-12-19T12:35:40.505Z,28.13
2022-12-19T12:35:50.040Z,28.13
2022-12-19T12:37:53.988Z,28.13
2022-12-19T12:38:25.825Z,33.75
2022-12-19T12:39:26.684Z,33.75
2022-12-19T12:40:24.025Z,33.75
2022-12-19T12:41:21.603Z,33.75
2022-12-19T12:42:21.547Z,33.75
2022-12-19T12:43:21.474Z,33.75
2022-12-19T12:44:22.646Z,39.38
2022-12-19T12:45:21.334Z,39.38
2022-12-19T12:46:21.356Z,39.38
2022-12-19T12:47:21.231Z,39.38
2022-12-19T12:48:21.185Z,39.38
2022-12-19T12:49:21.088Z,39.38
2022-12-19T12:50:21.020Z,45.00
2022-12-19T12:51:20.966Z,45.00
2022-12-19T12:52:20.922Z,45.00
2022-12-19T12:53:20.926Z,45.00
2022-12-19T12:54:20.829Z,45.00
2022-12-19T12:55:20.722Z,45.00
2022-12-19T12:56:20.688Z,45.00
2022-12-19T12:57:20.609Z,45.00
2022-12-19T12:58:23.831Z,45.00
2022-12-19T12:59:20.508Z,50.63
2022-12-19T13:00:20.523Z,50.63
2022-12-19T13:01:20.477Z,45.00
2022-12-19T13:02:20.622Z,45.00
2022-12-19T13:03:20.275Z,45.00
2022-12-19T13:04:20.178Z,45.00
2022-12-19T13:05:20.135Z,39.38
2022-12-19T13:06:20.077Z,39.38
2022-12-19T13:07:19.981Z,33.75
2022-12-19T13:08:19.939Z,33.75
2022-12-19T13:09:19.923Z,33.75
2022-12-19T13:10:19.801Z,33.75
2022-12-19T13:11:19.784Z,28.13
2022-12-19T13:12:19.723Z,28.13
2022-12-19T13:13:24.243Z,28.13
2022-12-19T13:14:19.601Z,28.13
2022-12-19T13:15:19.494Z,28.13